createdAt,value
2022-08-19T00:00:43.713Z,989.07
2022-08-19T00:01:43.676Z,989.12
2022-08-19T00:02:50.177Z,989.13
2022-08-19T00:03:44.676Z,989.14
2022-08-19T00:04:43.690Z,989.09
2022-08-19T00:05:43.666Z,989.12
2022-08-19T00:06:43.657Z,989.12
2022-08-19T00:07:43.663Z,989.10
2022-08-19T00:08:43.639Z,989.15
2022-08-19T00:09:43.624Z,989.15
2022-08-19T00:10:43.644Z,989.18
2022-08-19T00:11:43.621Z,989.13
2022-08-19T00:12:44.895Z,989.19
2022-08-19T00:13:43.603Z,989.19
2022-08-19T00:14:43.595Z,989.13
2022-08-19T00:15:43.604Z,989.12
2022-08-19T00:16:44.588Z,989.20
2022-08-19T00:17:43.576Z,989.12
2022-08-19T00:18:43.563Z,989.17
2022-08-19T00:19:43.562Z,989.16
2022-08-19T00:20:43.557Z,989.15
2022-08-19T00:21:43.558Z,989.08
2022-08-19T00:22:43.544Z,989.09
2022-08-19T00:23:43.529Z,989.06
2022-08-19T00:24:43.523Z,989.00
2022-08-19T00:25:43.518Z,989.00
2022-08-19T00:26:44.517Z,988.97
2022-08-19T00:27:43.509Z,988.92
2022-08-19T00:28:43.495Z,988.96
2022-08-19T00:29:43.486Z,989.02
2022-08-19T00:30:43.482Z,989.01
2022-08-19T00:31:43.470Z,989.03
2022-08-19T00:32:43.482Z,989.09
2022-08-19T00:33:43.461Z,989.09
2022-08-19T00:34:43.454Z,989.06
2022-08-19T00:35:43.446Z,989.14
2022-08-19T00:36:43.445Z,989.09
2022-08-19T00:37:43.437Z,989.09
2022-08-19T00:38:43.426Z,989.10
2022-08-19T00:39:43.437Z,989.05
2022-08-19T00:40:43.410Z,989.10
2022-08-19T00:41:43.402Z,989.11
2022-08-19T00:42:43.430Z,989.11
2022-08-19T00:43:43.390Z,989.04
2022-08-19T00:44:43.386Z,989.03
2022-08-19T00:45:43.370Z,989.06
2022-08-19T00:46:43.358Z,988.98
2022-08-19T00:47:43.385Z,989.01
2022-08-19T00:48:43.362Z,988.97
2022-08-19T00:49:43.354Z,988.96
2022-08-19T00:50:51.972Z,988.97
2022-08-19T00:51:44.331Z,988.97
2022-08-19T00:52:43.326Z,989.00
2022-08-19T00:53:43.337Z,989.01
2022-08-19T00:54:43.305Z,989.01
2022-08-19T00:55:43.314Z,988.98
2022-08-19T00:56:43.302Z,988.95
2022-08-19T00:57:43.295Z,988.95
2022-08-19T00:58:43.294Z,988.98
2022-08-19T01:00:00.723Z,988.97
2022-08-19T01:00:44.265Z,988.92
2022-08-19T01:01:43.302Z,988.85
2022-08-19T01:02:43.257Z,988.89
2022-08-19T01:03:58.156Z,988.85
2022-08-19T01:04:44.245Z,988.86
2022-08-19T01:05:43.244Z,988.83
2022-08-19T01:06:43.229Z,988.82
2022-08-19T01:07:43.226Z,988.76
2022-08-19T01:08:43.225Z,988.79
2022-08-19T01:09:43.210Z,988.80
2022-08-19T01:10:43.209Z,988.79
2022-08-19T01:11:43.217Z,988.79
2022-08-19T01:12:43.190Z,988.79
2022-08-19T01:13:44.520Z,988.75
2022-08-19T01:14:44.177Z,988.77
2022-08-19T01:15:43.177Z,988.78
2022-08-19T01:16:43.169Z,988.75
2022-08-19T01:17:43.158Z,988.70
2022-08-19T01:18:43.165Z,988.72
2022-08-19T01:19:44.079Z,988.70
2022-08-19T01:20:43.130Z,988.68
2022-08-19T01:21:43.133Z,988.61
2022-08-19T01:22:43.129Z,988.62
2022-08-19T01:23:43.117Z,988.63
2022-08-19T01:24:49.686Z,988.72
2022-08-19T01:25:43.129Z,988.70
2022-08-19T01:26:43.090Z,988.71
2022-08-19T01:27:43.964Z,988.77
2022-08-19T01:28:43.061Z,988.74
2022-08-19T01:29:44.097Z,988.77
2022-08-19T01:30:44.371Z,988.80
2022-08-19T01:31:43.061Z,988.79
2022-08-19T01:32:43.049Z,988.76
2022-08-19T01:33:43.046Z,988.84
2022-08-19T01:34:43.074Z,988.85
2022-08-19T01:35:43.042Z,988.81
2022-08-19T01:36:43.113Z,988.81
2022-08-19T01:37:43.026Z,988.86
2022-08-19T01:38:44.348Z,988.81
2022-08-19T01:39:43.037Z,988.85
2022-08-19T01:40:43.011Z,988.83
2022-08-19T01:41:43.002Z,988.83
2022-08-19T01:42:43.010Z,988.84
2022-08-19T01:44:13.653Z,988.78
2022-08-19T01:44:43.965Z,988.84
2022-08-19T01:45:42.961Z,988.79
2022-08-19T01:46:42.968Z,988.77
2022-08-19T01:47:42.948Z,988.81
2022-08-19T01:48:43.951Z,988.73
2022-08-19T01:49:42.935Z,988.74
2022-08-19T01:50:42.926Z,988.78
2022-08-19T01:51:42.935Z,988.78
2022-08-19T01:52:42.922Z,988.75
2022-08-19T01:53:42.893Z,988.77
2022-08-19T01:54:42.897Z,988.81
2022-08-19T01:55:42.892Z,988.81
2022-08-19T01:56:42.881Z,988.80
2022-08-19T01:57:42.885Z,988.85
2022-08-19T01:58:42.873Z,988.80
2022-08-19T01:59:42.862Z,988.85
2022-08-19T02:00:42.863Z,988.79
2022-08-19T02:01:42.900Z,988.81
2022-08-19T02:02:44.246Z,988.76
2022-08-19T02:03:42.842Z,988.80
2022-08-19T02:04:42.836Z,988.73
2022-08-19T02:05:42.821Z,988.79
2022-08-19T02:06:42.817Z,988.81
2022-08-19T02:07:42.830Z,988.81
2022-08-19T02:08:42.801Z,988.82
2022-08-19T02:09:42.797Z,988.89
2022-08-19T02:10:42.793Z,988.84
2022-08-19T02:11:42.782Z,988.84
2022-08-19T02:12:42.793Z,988.87
2022-08-19T02:13:42.777Z,988.85
2022-08-19T02:14:42.749Z,988.79
2022-08-19T02:15:42.753Z,988.76
2022-08-19T02:16:42.741Z,988.73
2022-08-19T02:17:42.737Z,988.73
2022-08-19T02:18:42.737Z,988.72
2022-08-19T02:19:42.721Z,988.71
2022-08-19T02:20:42.712Z,988.73
2022-08-19T02:21:42.724Z,988.71
2022-08-19T02:22:42.725Z,988.73
2022-08-19T02:23:42.682Z,988.72
2022-08-19T02:24:42.686Z,988.72
2022-08-19T02:25:42.689Z,988.75
2022-08-19T02:26:42.685Z,988.75
2022-08-19T02:27:42.666Z,988.75
2022-08-19T02:28:42.661Z,988.73
2022-08-19T02:29:42.648Z,988.73
2022-08-19T02:30:42.644Z,988.79
2022-08-19T02:31:42.641Z,988.77
2022-08-19T02:32:44.519Z,988.82
2022-08-19T02:33:42.612Z,988.77
2022-08-19T02:34:42.612Z,988.81
2022-08-19T02:35:42.608Z,988.86
2022-08-19T02:36:42.730Z,988.86
2022-08-19T02:37:42.614Z,988.83
2022-08-19T02:38:42.593Z,988.87
2022-08-19T02:39:42.585Z,988.95
2022-08-19T02:40:42.568Z,988.93
2022-08-19T02:41:42.560Z,988.94
2022-08-19T02:42:42.548Z,988.80
2022-08-19T02:44:25.639Z,988.94
2022-08-19T02:44:43.545Z,988.83
2022-08-19T02:45:42.524Z,988.80
2022-08-19T02:46:42.536Z,988.79
2022-08-19T02:47:42.528Z,988.77
2022-08-19T02:48:42.542Z,988.72
2022-08-19T02:49:42.506Z,988.72
2022-08-19T02:50:53.241Z,988.68
2022-08-19T02:51:43.496Z,988.75
2022-08-19T02:52:42.484Z,988.66
2022-08-19T02:53:42.483Z,988.72
2022-08-19T02:54:42.476Z,988.74
2022-08-19T02:55:45.797Z,988.72
2022-08-19T02:56:42.468Z,988.73
2022-08-19T02:57:42.452Z,988.77
2022-08-19T02:58:42.444Z,988.79
2022-08-19T02:59:42.456Z,988.73
2022-08-19T03:00:42.436Z,988.73
2022-08-19T03:01:43.067Z,988.82
2022-08-19T03:02:42.428Z,988.71
2022-08-19T03:03:42.507Z,988.73
2022-08-19T03:04:42.412Z,988.73
2022-08-19T03:05:48.151Z,988.85
2022-08-19T03:06:43.420Z,988.84
2022-08-19T03:07:42.380Z,988.84
2022-08-19T03:08:42.379Z,988.90
2022-08-19T03:09:42.372Z,988.88
2022-08-19T03:10:42.372Z,988.89
2022-08-19T03:11:42.383Z,988.91
2022-08-19T03:12:42.356Z,988.98
2022-08-19T03:13:42.343Z,988.92
2022-08-19T03:14:42.339Z,989.00
2022-08-19T03:15:42.340Z,989.00
2022-08-19T03:16:42.324Z,988.97
2022-08-19T03:17:42.328Z,988.98
2022-08-19T03:18:42.315Z,989.06
2022-08-19T03:19:42.315Z,988.99
2022-08-19T03:20:42.303Z,989.04
2022-08-19T03:21:42.292Z,988.99
2022-08-19T03:22:42.303Z,988.94
2022-08-19T03:23:42.279Z,988.89
2022-08-19T03:24:42.271Z,988.91
2022-08-19T03:25:42.256Z,988.92
2022-08-19T03:26:43.254Z,988.92
2022-08-19T03:27:42.255Z,988.89
2022-08-19T03:28:42.240Z,988.92
2022-08-19T03:29:44.085Z,988.92
2022-08-19T03:30:43.667Z,988.93
2022-08-19T03:31:50.951Z,988.86
2022-08-19T03:32:45.455Z,988.87
2022-08-19T03:33:42.203Z,988.91
2022-08-19T03:34:42.195Z,988.99
2022-08-19T03:35:42.303Z,989.02
2022-08-19T03:36:42.176Z,989.08
2022-08-19T03:37:42.178Z,989.05
2022-08-19T03:38:42.177Z,989.09
2022-08-19T03:39:42.188Z,989.15
2022-08-19T03:40:42.156Z,989.18
2022-08-19T03:41:45.554Z,989.26
2022-08-19T03:42:58.629Z,989.26
2022-08-19T03:43:43.162Z,989.22
2022-08-19T03:44:42.148Z,989.24
2022-08-19T03:45:42.115Z,989.26
2022-08-19T03:46:44.522Z,989.24
2022-08-19T03:47:42.103Z,989.25
2022-08-19T03:48:42.099Z,989.18
2022-08-19T03:49:42.100Z,989.19
2022-08-19T03:50:42.080Z,989.18
2022-08-19T03:51:42.078Z,989.14
2022-08-19T03:52:45.468Z,989.14
2022-08-19T03:53:42.059Z,989.16
2022-08-19T03:54:42.062Z,989.11
2022-08-19T03:55:42.044Z,989.14
2022-08-19T03:56:42.040Z,989.16
2022-08-19T03:57:42.032Z,989.12
2022-08-19T03:58:42.024Z,989.06
2022-08-19T03:59:42.032Z,989.13
2022-08-19T04:00:42.007Z,989.13
2022-08-19T04:01:42.066Z,989.11
2022-08-19T04:02:43.008Z,989.11
2022-08-19T04:03:42.987Z,989.14
2022-08-19T04:04:42.014Z,989.16
2022-08-19T04:05:41.975Z,989.14
2022-08-19T04:06:41.971Z,989.14
2022-08-19T04:07:41.963Z,989.20
2022-08-19T04:08:41.956Z,989.19
2022-08-19T04:09:41.948Z,989.21
2022-08-19T04:10:42.968Z,989.16
2022-08-19T04:11:43.571Z,989.20
2022-08-19T04:12:41.936Z,989.29
2022-08-19T04:13:41.925Z,989.27
2022-08-19T04:14:41.907Z,989.29
2022-08-19T04:15:41.911Z,989.35
2022-08-19T04:16:41.914Z,989.40
2022-08-19T04:17:41.889Z,989.40
2022-08-19T04:18:41.895Z,989.45
2022-08-19T04:19:41.879Z,989.40
2022-08-19T04:20:41.879Z,989.36
2022-08-19T04:21:41.879Z,989.29
2022-08-19T04:22:41.863Z,989.41
2022-08-19T04:23:45.505Z,989.25
2022-08-19T04:24:42.846Z,989.30
2022-08-19T04:25:41.843Z,989.25
2022-08-19T04:26:41.834Z,989.23
2022-08-19T04:27:41.827Z,989.17
2022-08-19T04:28:41.819Z,989.17
2022-08-19T04:29:41.814Z,989.18
2022-08-19T04:30:41.811Z,989.19
2022-08-19T04:31:41.837Z,989.20
2022-08-19T04:32:41.787Z,989.17
2022-08-19T04:33:41.799Z,989.20
2022-08-19T04:35:02.516Z,989.24
2022-08-19T04:35:42.800Z,989.28
2022-08-19T04:36:41.779Z,989.20
2022-08-19T04:37:41.767Z,989.30
2022-08-19T04:38:41.743Z,989.36
2022-08-19T04:39:41.754Z,989.32
2022-08-19T04:40:41.739Z,989.31
2022-08-19T04:41:41.759Z,989.28
2022-08-19T04:42:41.723Z,989.29
2022-08-19T04:43:41.712Z,989.37
2022-08-19T04:44:46.149Z,989.32
2022-08-19T04:45:43.595Z,989.29
2022-08-19T04:46:51.509Z,989.26
2022-08-19T04:47:47.402Z,989.28
2022-08-19T04:48:44.159Z,989.20
2022-08-19T04:49:42.676Z,989.23
2022-08-19T04:50:41.667Z,989.20
2022-08-19T04:51:41.661Z,989.20
2022-08-19T04:52:41.667Z,989.25
2022-08-19T04:53:41.648Z,989.22
2022-08-19T04:54:41.635Z,989.22
2022-08-19T04:55:41.647Z,989.29
2022-08-19T04:56:41.631Z,989.25
2022-08-19T04:57:41.624Z,989.26
2022-08-19T04:58:41.613Z,989.34
2022-08-19T04:59:41.602Z,989.36
2022-08-19T05:00:41.650Z,989.39
2022-08-19T05:01:42.585Z,989.41
2022-08-19T05:02:41.607Z,989.35
2022-08-19T05:03:41.598Z,989.38
2022-08-19T05:04:41.567Z,989.44
2022-08-19T05:05:45.334Z,989.43
2022-08-19T05:06:41.564Z,989.43
2022-08-19T05:07:41.536Z,989.44
2022-08-19T05:08:41.545Z,989.42
2022-08-19T05:09:58.621Z,989.45
2022-08-19T05:10:42.531Z,989.45
2022-08-19T05:11:41.519Z,989.48
2022-08-19T05:12:41.511Z,989.39
2022-08-19T05:13:41.917Z,989.45
2022-08-19T05:14:41.496Z,989.44
2022-08-19T05:15:41.481Z,989.41
2022-08-19T05:16:41.480Z,989.46
2022-08-19T05:17:41.472Z,989.49
2022-08-19T05:18:41.466Z,989.44
2022-08-19T05:19:41.464Z,989.45
2022-08-19T05:20:41.454Z,989.44
2022-08-19T05:21:41.451Z,989.45
2022-08-19T05:22:41.463Z,989.51
2022-08-19T05:23:41.436Z,989.49
2022-08-19T05:25:02.392Z,989.49
2022-08-19T05:25:43.427Z,989.55
2022-08-19T05:26:41.428Z,989.47
2022-08-19T05:27:41.419Z,989.50
2022-08-19T05:28:41.394Z,989.49
2022-08-19T05:29:41.388Z,989.47
2022-08-19T05:30:47.162Z,989.40
2022-08-19T05:31:43.387Z,989.44
2022-08-19T05:32:41.383Z,989.41
2022-08-19T05:33:41.379Z,989.36
2022-08-19T05:34:41.358Z,989.43
2022-08-19T05:35:41.359Z,989.40
2022-08-19T05:36:41.371Z,989.34
2022-08-19T05:37:41.727Z,989.32
2022-08-19T05:38:41.334Z,989.35
2022-08-19T05:39:41.377Z,989.32
2022-08-19T05:40:41.318Z,989.32
2022-08-19T05:41:41.302Z,989.32
2022-08-19T05:42:41.322Z,989.32
2022-08-19T05:43:41.307Z,989.27
2022-08-19T05:44:41.278Z,989.28
2022-08-19T05:45:41.305Z,989.30
2022-08-19T05:46:41.279Z,989.36
2022-08-19T05:47:42.298Z,989.37
2022-08-19T05:48:41.288Z,989.34
2022-08-19T05:49:41.258Z,989.43
2022-08-19T05:50:41.246Z,989.44
2022-08-19T05:51:41.234Z,989.43
2022-08-19T05:52:43.637Z,989.45
2022-08-19T05:53:41.231Z,989.40
2022-08-19T05:54:41.238Z,989.45
2022-08-19T05:55:41.222Z,989.42
2022-08-19T05:56:41.202Z,989.38
2022-08-19T05:57:41.203Z,989.34
2022-08-19T05:58:41.195Z,989.39
2022-08-19T05:59:41.178Z,989.35
2022-08-19T06:00:41.182Z,989.37
2022-08-19T06:01:41.166Z,989.27
2022-08-19T06:02:41.197Z,989.25
2022-08-19T06:03:41.160Z,989.27
2022-08-19T06:04:41.147Z,989.24
2022-08-19T06:05:42.322Z,989.30
2022-08-19T06:06:42.134Z,989.23
2022-08-19T06:07:41.143Z,989.15
2022-08-19T06:08:41.138Z,989.22
2022-08-19T06:09:41.120Z,989.21
2022-08-19T06:10:41.118Z,989.14
2022-08-19T06:11:41.093Z,989.19
2022-08-19T06:12:41.122Z,989.23
2022-08-19T06:13:41.094Z,989.21
2022-08-19T06:14:41.804Z,989.27
2022-08-19T06:15:41.074Z,989.33
2022-08-19T06:16:41.067Z,989.35
2022-08-19T06:17:41.058Z,989.34
2022-08-19T06:18:41.051Z,989.28
2022-08-19T06:19:41.279Z,989.30
2022-08-19T06:20:55.460Z,989.35
2022-08-19T06:21:43.063Z,989.37
2022-08-19T06:22:41.029Z,989.37
2022-08-19T06:23:41.018Z,989.36
2022-08-19T06:24:41.014Z,989.42
2022-08-19T06:25:41.010Z,989.41
2022-08-19T06:26:41.027Z,989.44
2022-08-19T06:27:58.717Z,989.45
2022-08-19T06:28:42.991Z,989.48
2022-08-19T06:29:41.006Z,989.50
2022-08-19T06:30:40.973Z,989.47
2022-08-19T06:31:40.963Z,989.52
2022-08-19T06:32:42.907Z,989.49
2022-08-19T06:33:41.950Z,989.43
2022-08-19T06:34:40.951Z,989.39
2022-08-19T06:35:41.006Z,989.46
2022-08-19T06:36:41.926Z,989.50
2022-08-19T06:37:43.741Z,989.58
2022-08-19T06:38:41.922Z,989.56
2022-08-19T06:39:41.005Z,989.59
2022-08-19T06:40:40.950Z,989.60
2022-08-19T06:41:47.205Z,989.64
2022-08-19T06:42:44.829Z,989.67
2022-08-19T06:43:42.157Z,989.69
2022-08-19T06:44:43.398Z,989.68
2022-08-19T06:45:40.858Z,989.68
2022-08-19T06:46:40.862Z,989.67
2022-08-19T06:47:40.855Z,989.65
2022-08-19T06:48:45.124Z,989.68
2022-08-19T06:49:41.854Z,989.67
2022-08-19T06:50:41.022Z,989.79
2022-08-19T06:51:42.477Z,989.83
2022-08-19T06:52:40.846Z,989.87
2022-08-19T06:53:40.854Z,989.88
2022-08-19T06:54:55.478Z,989.92
2022-08-19T06:55:41.818Z,989.96
2022-08-19T06:56:40.834Z,989.95
2022-08-19T06:57:40.794Z,989.98
2022-08-19T06:58:40.950Z,990.02
2022-08-19T06:59:40.806Z,990.03
2022-08-19T07:00:40.799Z,990.01
2022-08-19T07:01:40.778Z,990.00
2022-08-19T07:02:40.771Z,990.00
2022-08-19T07:03:40.759Z,990.02
2022-08-19T07:04:42.565Z,990.12
2022-08-19T07:05:45.740Z,990.12
2022-08-19T07:06:44.086Z,990.20
2022-08-19T07:07:40.725Z,990.17
2022-08-19T07:09:41.730Z,990.13
2022-08-19T07:10:42.780Z,990.14
2022-08-19T07:11:40.705Z,990.09
2022-08-19T07:12:40.698Z,990.10
2022-08-19T07:13:40.686Z,990.09
2022-08-19T07:14:40.698Z,990.05
2022-08-19T07:15:40.674Z,990.00
2022-08-19T07:16:43.040Z,989.98
2022-08-19T07:17:42.041Z,990.00
2022-08-19T07:18:40.651Z,990.03
2022-08-19T07:19:40.670Z,989.96
2022-08-19T07:20:42.106Z,990.00
2022-08-19T07:21:40.645Z,990.04
2022-08-19T07:22:40.624Z,989.98
2022-08-19T07:23:40.641Z,990.00
2022-08-19T07:24:40.630Z,990.10
2022-08-19T07:25:41.639Z,990.14
2022-08-19T07:26:40.610Z,990.14
2022-08-19T07:27:40.589Z,990.19
2022-08-19T07:28:40.594Z,990.20
2022-08-19T07:29:41.586Z,990.20
2022-08-19T07:30:40.586Z,990.22
2022-08-19T07:31:40.571Z,990.20
2022-08-19T07:32:40.570Z,990.18
2022-08-19T07:33:40.639Z,990.18
2022-08-19T07:34:40.548Z,990.15
2022-08-19T07:35:40.558Z,990.20
2022-08-19T07:36:40.541Z,990.18
2022-08-19T07:37:40.534Z,990.21
2022-08-19T07:38:40.525Z,990.24
2022-08-19T07:39:40.570Z,990.20
2022-08-19T07:40:40.526Z,990.18
2022-08-19T07:41:40.518Z,990.19
2022-08-19T07:42:40.514Z,990.16
2022-08-19T07:43:40.502Z,990.14
2022-08-19T07:45:40.485Z,990.14
2022-08-19T07:46:40.486Z,990.13
2022-08-19T07:47:58.759Z,990.08
2022-08-19T07:48:41.470Z,990.04
2022-08-19T07:49:40.459Z,990.06
2022-08-19T07:50:40.461Z,990.05
2022-08-19T07:51:59.385Z,990.01
2022-08-19T07:52:40.687Z,990.02
2022-08-19T07:53:40.433Z,990.00
2022-08-19T07:54:40.435Z,990.03
2022-08-19T07:55:43.541Z,990.03
2022-08-19T07:56:40.433Z,990.00
2022-08-19T07:57:40.439Z,990.03
2022-08-19T07:58:40.400Z,990.03
2022-08-19T07:59:40.412Z,990.05
2022-08-19T08:00:40.391Z,990.04
2022-08-19T08:01:41.919Z,990.08
2022-08-19T08:02:40.388Z,990.08
2022-08-19T08:03:40.377Z,990.13
2022-08-19T08:04:40.363Z,990.13
2022-08-19T08:05:43.422Z,990.06
2022-08-19T08:06:41.356Z,990.08
2022-08-19T08:07:40.367Z,990.11
2022-08-19T08:08:44.246Z,990.14
2022-08-19T08:09:40.328Z,990.19
2022-08-19T08:10:40.324Z,990.09
2022-08-19T08:11:40.316Z,990.11
2022-08-19T08:12:40.316Z,990.10
2022-08-19T08:13:40.312Z,990.06
2022-08-19T08:14:40.304Z,990.07
2022-08-19T08:15:43.013Z,990.10
2022-08-19T08:16:47.124Z,990.02
2022-08-19T08:17:51.385Z,990.05
2022-08-19T08:18:41.280Z,990.06
2022-08-19T08:19:40.268Z,990.14
2022-08-19T08:20:40.267Z,990.12
2022-08-19T08:22:40.267Z,990.11
2022-08-19T08:23:40.306Z,990.14
2022-08-19T08:24:40.243Z,990.17
2022-08-19T08:25:40.233Z,990.21
2022-08-19T08:26:40.220Z,990.13
2022-08-19T08:27:41.224Z,990.21
2022-08-19T08:28:40.212Z,990.18
2022-08-19T08:29:40.208Z,990.19
2022-08-19T08:30:40.213Z,990.17
2022-08-19T08:31:40.195Z,990.15
2022-08-19T08:32:40.184Z,990.24
2022-08-19T08:33:40.184Z,990.28
2022-08-19T08:34:40.196Z,990.28
2022-08-19T08:35:40.172Z,990.31
2022-08-19T08:36:40.178Z,990.30
2022-08-19T08:37:40.160Z,990.32
2022-08-19T08:38:41.325Z,990.36
2022-08-19T08:39:40.174Z,990.37
2022-08-19T08:40:40.152Z,990.37
2022-08-19T08:41:40.131Z,990.41
2022-08-19T08:42:40.127Z,990.38
2022-08-19T08:43:40.116Z,990.37
2022-08-19T08:44:40.104Z,990.40
2022-08-19T08:45:41.022Z,990.39
2022-08-19T08:46:40.109Z,990.36
2022-08-19T08:47:42.122Z,990.36
2022-08-19T08:48:40.103Z,990.37
2022-08-19T08:49:40.076Z,990.33
2022-08-19T08:50:40.075Z,990.27
2022-08-19T08:52:40.063Z,990.24
2022-08-19T08:53:41.975Z,990.21
2022-08-19T08:54:40.047Z,990.29
2022-08-19T08:55:40.063Z,990.21
2022-08-19T08:56:40.032Z,990.29
2022-08-19T08:57:46.693Z,990.35
2022-08-19T08:58:41.040Z,990.24
2022-08-19T08:59:40.031Z,990.33
2022-08-19T09:00:40.023Z,990.31
2022-08-19T09:01:40.030Z,990.31
2022-08-19T09:02:40.006Z,990.34
2022-08-19T09:03:40.001Z,990.33
2022-08-19T09:04:39.994Z,990.31
2022-08-19T09:05:48.474Z,990.33
2022-08-19T09:06:41.041Z,990.36
2022-08-19T09:07:40.082Z,990.35
2022-08-19T09:08:39.960Z,990.35
2022-08-19T09:09:39.958Z,990.33
2022-08-19T09:10:44.365Z,990.39
2022-08-19T09:11:42.454Z,990.37
2022-08-19T09:12:39.937Z,990.36
2022-08-19T09:13:39.940Z,990.43
2022-08-19T09:14:50.227Z,990.36
2022-08-19T09:15:42.015Z,990.39
2022-08-19T09:16:39.931Z,990.35
2022-08-19T09:17:39.915Z,990.30
2022-08-19T09:18:39.898Z,990.31
2022-08-19T09:19:39.905Z,990.41
2022-08-19T09:20:42.546Z,990.36
2022-08-19T09:21:40.600Z,990.37
2022-08-19T09:22:39.883Z,990.40
2022-08-19T09:23:39.863Z,990.41
2022-08-19T09:24:39.859Z,990.41
2022-08-19T09:25:39.867Z,990.36
2022-08-19T09:26:48.709Z,990.37
2022-08-19T09:27:42.756Z,990.36
2022-08-19T09:28:39.844Z,990.29
2022-08-19T09:29:39.832Z,990.37
2022-08-19T09:30:39.823Z,990.30
2022-08-19T09:31:39.820Z,990.37
2022-08-19T09:32:39.835Z,990.35
2022-08-19T09:33:39.807Z,990.31
2022-08-19T09:34:44.061Z,990.29
2022-08-19T09:35:43.852Z,990.24
2022-08-19T09:36:40.791Z,990.30
2022-08-19T09:37:47.245Z,990.34
2022-08-19T09:38:43.493Z,990.26
2022-08-19T09:39:39.936Z,990.28
2022-08-19T09:40:39.806Z,990.30
2022-08-19T09:41:39.903Z,990.33
2022-08-19T09:42:50.158Z,990.32
2022-08-19T09:43:44.619Z,990.37
2022-08-19T09:44:39.766Z,990.39
2022-08-19T09:45:39.739Z,990.40
2022-08-19T09:46:39.719Z,990.41
2022-08-19T09:47:40.579Z,990.40
2022-08-19T09:48:39.710Z,990.35
2022-08-19T09:49:40.711Z,990.39
2022-08-19T09:50:51.520Z,990.43
2022-08-19T09:51:40.703Z,990.39
2022-08-19T09:52:39.696Z,990.42
2022-08-19T09:53:40.682Z,990.49
2022-08-19T09:54:39.847Z,990.46
2022-08-19T09:55:39.779Z,990.43
2022-08-19T09:56:39.717Z,990.42
2022-08-19T09:57:39.702Z,990.45
2022-08-19T09:58:39.709Z,990.43
2022-08-19T09:59:39.714Z,990.44
2022-08-19T10:00:39.679Z,990.39
2022-08-19T10:01:39.685Z,990.44
2022-08-19T10:02:39.675Z,990.41
2022-08-19T10:03:39.660Z,990.37
2022-08-19T10:04:39.623Z,990.38
2022-08-19T10:05:42.353Z,990.36
2022-08-19T10:06:45.910Z,990.44
2022-08-19T10:07:40.655Z,990.51
2022-08-19T10:08:39.613Z,990.36
2022-08-19T10:09:40.635Z,990.46
2022-08-19T10:10:39.594Z,990.38
2022-08-19T10:11:42.351Z,990.37
2022-08-19T10:12:39.595Z,990.38
2022-08-19T10:13:39.580Z,990.40
2022-08-19T10:14:39.577Z,990.29
2022-08-19T10:15:47.402Z,990.19
2022-08-19T10:16:40.571Z,990.29
2022-08-19T10:17:39.536Z,990.24
2022-08-19T10:18:40.567Z,990.28
2022-08-19T10:19:39.562Z,990.26
2022-08-19T10:20:39.603Z,990.21
2022-08-19T10:21:40.573Z,990.19
2022-08-19T10:22:39.535Z,990.29
2022-08-19T10:23:39.494Z,990.18
2022-08-19T10:24:39.519Z,990.26
2022-08-19T10:25:39.546Z,990.21
2022-08-19T10:26:39.527Z,990.15
2022-08-19T10:27:39.514Z,990.15
2022-08-19T10:28:39.479Z,990.18
2022-08-19T10:29:46.514Z,990.18
2022-08-19T10:30:40.502Z,990.22
2022-08-19T10:31:58.799Z,990.24
2022-08-19T10:32:40.488Z,990.20
2022-08-19T10:33:53.144Z,990.09
2022-08-19T10:34:48.429Z,990.12
2022-08-19T10:35:42.637Z,990.21
2022-08-19T10:36:56.403Z,990.22
2022-08-19T10:37:56.695Z,990.28
2022-08-19T10:38:53.459Z,990.29
2022-08-19T10:39:43.031Z,990.17
2022-08-19T10:40:39.417Z,990.20
2022-08-19T10:41:39.446Z,990.13
2022-08-19T10:42:39.385Z,990.20
2022-08-19T10:43:39.453Z,990.10
2022-08-19T10:44:39.448Z,990.14
2022-08-19T10:45:39.406Z,990.10
2022-08-19T10:46:40.441Z,990.10
2022-08-19T10:47:39.391Z,990.05
2022-08-19T10:48:39.377Z,990.21
2022-08-19T10:49:39.369Z,990.21
2022-08-19T10:50:39.387Z,990.15
2022-08-19T10:51:47.773Z,990.16
2022-08-19T10:52:39.399Z,990.21
2022-08-19T10:53:40.337Z,990.20
2022-08-19T10:54:39.346Z,990.30
2022-08-19T10:55:39.343Z,990.25
2022-08-19T10:56:39.313Z,990.21
2022-08-19T10:58:01.780Z,990.15
2022-08-19T10:58:41.302Z,990.14
2022-08-19T10:59:39.299Z,990.07
2022-08-19T11:00:39.270Z,989.99
2022-08-19T11:01:39.314Z,989.99
2022-08-19T11:02:39.285Z,990.03
2022-08-19T11:03:39.258Z,989.99
2022-08-19T11:04:39.263Z,989.95
2022-08-19T11:05:40.232Z,989.94
2022-08-19T11:06:39.254Z,989.98
2022-08-19T11:07:39.274Z,989.93
2022-08-19T11:08:39.239Z,990.02
2022-08-19T11:09:39.250Z,989.97
2022-08-19T11:10:39.225Z,989.90
2022-08-19T11:11:39.466Z,989.76
2022-08-19T11:12:39.218Z,989.78
2022-08-19T11:13:39.212Z,989.86
2022-08-19T11:14:39.201Z,989.81
2022-08-19T11:15:39.194Z,989.80
2022-08-19T11:16:39.200Z,989.85
2022-08-19T11:17:39.191Z,989.76
2022-08-19T11:18:39.209Z,989.91
2022-08-19T11:19:39.173Z,989.92
2022-08-19T11:20:39.181Z,989.96
2022-08-19T11:21:39.173Z,989.94
2022-08-19T11:22:41.615Z,989.91
2022-08-19T11:23:40.161Z,989.81
2022-08-19T11:24:39.143Z,989.83
2022-08-19T11:25:39.133Z,989.75
2022-08-19T11:26:39.153Z,989.67
2022-08-19T11:27:39.131Z,989.62
2022-08-19T11:28:39.122Z,989.55
2022-08-19T11:29:39.117Z,989.55
2022-08-19T11:30:39.119Z,989.50
2022-08-19T11:31:39.133Z,989.50
2022-08-19T11:32:39.113Z,989.45
2022-08-19T11:33:39.097Z,989.31
2022-08-19T11:34:39.092Z,989.26
2022-08-19T11:35:39.093Z,989.26
2022-08-19T11:36:39.089Z,989.28
2022-08-19T11:37:39.091Z,989.25
2022-08-19T11:38:39.082Z,989.16
2022-08-19T11:39:39.118Z,989.17
2022-08-19T11:40:39.062Z,989.24
2022-08-19T11:41:39.057Z,989.27
2022-08-19T11:42:39.066Z,989.24
2022-08-19T11:43:39.053Z,989.21
2022-08-19T11:44:39.059Z,989.19
2022-08-19T11:45:39.028Z,989.15
2022-08-19T11:46:39.048Z,989.12
2022-08-19T11:47:39.045Z,989.14
2022-08-19T11:48:39.016Z,989.17
2022-08-19T11:49:39.013Z,989.16
2022-08-19T11:50:39.009Z,989.15
2022-08-19T11:51:39.000Z,989.12
2022-08-19T11:52:38.997Z,989.19
2022-08-19T11:53:39.016Z,989.25
2022-08-19T11:54:38.983Z,989.17
2022-08-19T11:55:38.985Z,989.24
2022-08-19T11:56:39.984Z,989.19
2022-08-19T11:57:38.985Z,989.31
2022-08-19T11:58:39.964Z,989.27
2022-08-19T11:59:38.992Z,989.29
2022-08-19T12:00:39.020Z,989.35
2022-08-19T12:01:38.953Z,989.36
2022-08-19T12:02:38.960Z,989.42
2022-08-19T12:03:39.008Z,989.41
2022-08-19T12:04:38.948Z,989.44
2022-08-19T12:05:38.943Z,989.35
2022-08-19T12:06:38.940Z,989.32
2022-08-19T12:07:38.924Z,989.39
2022-08-19T12:08:38.942Z,989.38
2022-08-19T12:09:39.718Z,989.41
2022-08-19T12:10:38.913Z,989.36
2022-08-19T12:11:38.910Z,989.37
2022-08-19T12:12:38.909Z,989.39
2022-08-19T12:13:38.920Z,989.40
2022-08-19T12:14:38.896Z,989.38
2022-08-19T12:15:38.884Z,989.43
2022-08-19T12:16:44.674Z,989.42
2022-08-19T12:17:40.877Z,989.40
2022-08-19T12:18:38.889Z,989.44
2022-08-19T12:19:38.896Z,989.38
2022-08-19T12:20:38.865Z,989.43
2022-08-19T12:21:38.864Z,989.33
2022-08-19T12:22:38.852Z,989.37
2022-08-19T12:23:38.856Z,989.39
2022-08-19T12:24:38.864Z,989.40
2022-08-19T12:25:38.852Z,989.36
2022-08-19T12:26:53.089Z,989.26
2022-08-19T12:27:40.744Z,989.35
2022-08-19T12:28:38.820Z,989.36
2022-08-19T12:29:38.828Z,989.39
2022-08-19T12:30:38.825Z,989.35
2022-08-19T12:31:38.804Z,989.39
2022-08-19T12:32:38.807Z,989.36